sensor_id;sensor_type;location;lat;lon;timestamp;P1;durP1;ratioP1;P2;durP2;ratioP2
22415;SDS011;12204;50.600;4.608;2023-05-10T00:03:03;3.65;;;1.00;;
22415;SDS011;12204;50.600;4.608;2023-05-10T00:13:16;4.03;;;0.88;;
22415;SDS011;12204;50.600;4.608;2023-05-10T00:18:21;4.63;;;1.00;;
22415;SDS011;12204;50.600;4.608;2023-05-10T00:23:28;3.90;;;1.00;;
22415;SDS011;12204;50.600;4.608;2023-05-10T00:28:33;3.17;;;0.93;;
22415;SDS011;12204;50.600;4.608;2023-05-10T00:33:38;3.70;;;0.95;;
22415;SDS011;12204;50.600;4.608;2023-05-10T00:38:44;2.00;;;0.80;;
22415;SDS011;12204;50.600;4.608;2023-05-10T00:43:47;7.57;;;0.90;;
22415;SDS011;12204;50.600;4.608;2023-05-10T00:48:51;2.35;;;0.90;;
22415;SDS011;12204;50.600;4.608;2023-05-10T00:53:56;5.22;;;1.10;;
22415;SDS011;12204;50.600;4.608;2023-05-10T00:59:02;2.28;;;0.90;;
22415;SDS011;12204;50.600;4.608;2023-05-10T01:04:07;3.33;;;0.90;;
22415;SDS011;12204;50.600;4.608;2023-05-10T01:09:14;2.58;;;0.93;;
22415;SDS011;12204;50.600;4.608;2023-05-10T01:14:22;3.65;;;1.00;;
22415;SDS011;12204;50.600;4.608;2023-05-10T01:19:29;3.20;;;1.00;;
22415;SDS011;12204;50.600;4.608;2023-05-10T01:24:49;2.60;;;0.82;;
22415;SDS011;12204;50.600;4.608;2023-05-10T01:30:29;2.88;;;0.95;;
22415;SDS011;12204;50.600;4.608;2023-05-10T01:36:29;2.90;;;1.05;;
22415;SDS011;12204;50.600;4.608;2023-05-10T01:41:44;3.38;;;1.00;;
22415;SDS011;12204;50.600;4.608;2023-05-10T01:47:01;4.25;;;1.30;;
22415;SDS011;12204;50.600;4.608;2023-05-10T01:52:14;2.97;;;1.00;;
22415;SDS011;12204;50.600;4.608;2023-05-10T01:57:24;4.90;;;1.27;;
22415;SDS011;12204;50.600;4.608;2023-05-10T02:02:35;4.00;;;1.17;;
22415;SDS011;12204;50.600;4.608;2023-05-10T02:07:47;3.60;;;1.00;;
22415;SDS011;12204;50.600;4.608;2023-05-10T02:12:53;4.15;;;1.20;;
22415;SDS011;12204;50.600;4.608;2023-05-10T02:18:02;3.22;;;1.10;;
22415;SDS011;12204;50.600;4.608;2023-05-10T02:23:11;3.50;;;1.17;;
22415;SDS011;12204;50.600;4.608;2023-05-10T02:28:17;3.88;;;1.20;;
22415;SDS011;12204;50.600;4.608;2023-05-10T02:33:23;3.92;;;1.27;;
22415;SDS011;12204;50.600;4.608;2023-05-10T02:38:30;4.28;;;1.30;;
22415;SDS011;12204;50.600;4.608;2023-05-10T02:43:36;4.00;;;1.40;;
22415;SDS011;12204;50.600;4.608;2023-05-10T02:48:43;3.65;;;1.30;;
22415;SDS011;12204;50.600;4.608;2023-05-10T02:53:50;4.00;;;1.50;;
22415;SDS011;12204;50.600;4.608;2023-05-10T02:58:57;3.33;;;1.30;;
22415;SDS011;12204;50.600;4.608;2023-05-10T03:04:02;4.78;;;1.20;;
22415;SDS011;12204;50.600;4.608;2023-05-10T03:09:07;3.13;;;1.33;;
22415;SDS011;12204;50.600;4.608;2023-05-10T03:14:16;2.80;;;1.20;;
22415;SDS011;12204;50.600;4.608;2023-05-10T03:19:34;3.25;;;1.35;;
22415;SDS011;12204;50.600;4.608;2023-05-10T03:24:50;2.87;;;1.20;;
22415;SDS011;12204;50.600;4.608;2023-05-10T03:30:01;3.00;;;1.20;;
22415;SDS011;12204;50.600;4.608;2023-05-10T03:35:07;4.07;;;1.40;;
22415;SDS011;12204;50.600;4.608;2023-05-10T03:40:13;4.15;;;1.30;;
22415;SDS011;12204;50.600;4.608;2023-05-10T03:45:17;3.25;;;1.30;;
22415;SDS011;12204;50.600;4.608;2023-05-10T03:50:21;4.38;;;1.50;;
22415;SDS011;12204;50.600;4.608;2023-05-10T03:55:26;3.42;;;1.30;;
22415;SDS011;12204;50.600;4.608;2023-05-10T04:00:30;3.67;;;1.38;;
22415;SDS011;12204;50.600;4.608;2023-05-10T04:05:35;3.20;;;1.30;;
22415;SDS011;12204;50.600;4.608;2023-05-10T04:10:40;3.15;;;1.40;;
22415;SDS011;12204;50.600;4.608;2023-05-10T04:15:43;3.42;;;1.40;;
22415;SDS011;12204;50.600;4.608;2023-05-10T04:20:48;3.40;;;1.40;;
22415;SDS011;12204;50.600;4.608;2023-05-10T04:25:59;3.25;;;1.45;;
22415;SDS011;12204;50.600;4.608;2023-05-10T04:31:05;3.83;;;1.60;;
22415;SDS011;12204;50.600;4.608;2023-05-10T04:36:11;3.47;;;1.40;;
22415;SDS011;12204;50.600;4.608;2023-05-10T04:41:18;4.55;;;1.75;;
22415;SDS011;12204;50.600;4.608;2023-05-10T04:46:22;4.78;;;1.40;;
22415;SDS011;12204;50.600;4.608;2023-05-10T04:51:26;4.70;;;1.60;;
22415;SDS011;12204;50.600;4.608;2023-05-10T04:56:33;8.68;;;1.67;;
22415;SDS011;12204;50.600;4.608;2023-05-10T05:01:38;5.45;;;1.42;;
22415;SDS011;12204;50.600;4.608;2023-05-10T05:06:43;4.22;;;1.65;;
22415;SDS011;12204;50.600;4.608;2023-05-10T05:11:49;5.50;;;1.48;;
22415;SDS011;12204;50.600;4.608;2023-05-10T05:16:53;6.28;;;1.55;;
22415;SDS011;12204;50.600;4.608;2023-05-10T05:21:57;7.80;;;1.70;;
22415;SDS011;12204;50.600;4.608;2023-05-10T05:27:02;11.10;;;1.80;;
22415;SDS011;12204;50.600;4.608;2023-05-10T05:32:07;10.95;;;1.80;;
22415;SDS011;12204;50.600;4.608;2023-05-10T05:37:12;11.07;;;1.50;;
22415;SDS011;12204;50.600;4.608;2023-05-10T05:42:18;8.23;;;1.70;;
22415;SDS011;12204;50.600;4.608;2023-05-10T05:47:23;8.07;;;1.50;;
22415;SDS011;12204;50.600;4.608;2023-05-10T05:52:32;8.27;;;1.80;;
22415;SDS011;12204;50.600;4.608;2023-05-10T05:57:39;6.57;;;1.88;;
22415;SDS011;12204;50.600;4.608;2023-05-10T06:02:43;13.95;;;2.10;;
22415;SDS011;12204;50.600;4.608;2023-05-10T06:07:47;13.50;;;1.90;;
22415;SDS011;12204;50.600;4.608;2023-05-10T06:12:52;8.27;;;1.80;;
22415;SDS011;12204;50.600;4.608;2023-05-10T06:17:56;5.47;;;1.40;;
22415;SDS011;12204;50.600;4.608;2023-05-10T06:22:59;5.25;;;1.60;;
22415;SDS011;12204;50.600;4.608;2023-05-10T06:28:04;11.73;;;1.60;;
22415;SDS011;12204;50.600;4.608;2023-05-10T06:33:07;8.48;;;1.60;;
22415;SDS011;12204;50.600;4.608;2023-05-10T06:38:11;11.13;;;1.60;;
22415;SDS011;12204;50.600;4.608;2023-05-10T06:43:16;7.93;;;1.70;;
22415;SDS011;12204;50.600;4.608;2023-05-10T06:48:19;11.82;;;1.70;;
22415;SDS011;12204;50.600;4.608;2023-05-10T06:53:23;7.10;;;1.80;;
22415;SDS011;12204;50.600;4.608;2023-05-10T06:58:28;9.80;;;1.70;;
22415;SDS011;12204;50.600;4.608;2023-05-10T07:03:31;9.63;;;1.70;;
22415;SDS011;12204;50.600;4.608;2023-05-10T07:08:35;9.43;;;1.63;;
22415;SDS011;12204;50.600;4.608;2023-05-10T07:13:40;8.93;;;1.70;;
22415;SDS011;12204;50.600;4.608;2023-05-10T07:18:45;5.50;;;1.77;;
22415;SDS011;12204;50.600;4.608;2023-05-10T07:23:49;8.20;;;1.80;;
22415;SDS011;12204;50.600;4.608;2023-05-10T07:28:54;8.27;;;1.60;;
22415;SDS011;12204;50.600;4.608;2023-05-10T07:33:57;6.60;;;1.80;;
22415;SDS011;12204;50.600;4.608;2023-05-10T07:39:00;7.93;;;2.00;;
22415;SDS011;12204;50.600;4.608;2023-05-10T07:44:05;6.28;;;1.83;;
22415;SDS011;12204;50.600;4.608;2023-05-10T07:49:09;6.03;;;1.65;;
22415;SDS011;12204;50.600;4.608;2023-05-10T07:54:13;5.90;;;1.70;;
22415;SDS011;12204;50.600;4.608;2023-05-10T07:59:18;6.03;;;1.75;;
22415;SDS011;12204;50.600;4.608;2023-05-10T08:04:21;11.95;;;2.08;;
22415;SDS011;12204;50.600;4.608;2023-05-10T08:09:25;6.70;;;1.70;;
22415;SDS011;12204;50.600;4.608;2023-05-10T08:14:30;7.63;;;1.98;;
22415;SDS011;12204;50.600;4.608;2023-05-10T08:19:33;9.07;;;2.05;;
22415;SDS011;12204;50.600;4.608;2023-05-10T08:24:37;12.02;;;2.42;;
22415;SDS011;12204;50.600;4.608;2023-05-10T08:29:42;10.38;;;2.40;;
22415;SDS011;12204;50.600;4.608;2023-05-10T08:34:50;12.13;;;2.30;;
22415;SDS011;12204;50.600;4.608;2023-05-10T08:39:54;11.48;;;2.20;;
22415;SDS011;12204;50.600;4.608;2023-05-10T08:44:59;11.82;;;2.20;;
22415;SDS011;12204;50.600;4.608;2023-05-10T08:50:03;7.00;;;2.30;;
22415;SDS011;12204;50.600;4.608;2023-05-10T08:55:08;13.55;;;2.45;;
22415;SDS011;12204;50.600;4.608;2023-05-10T09:00:13;11.02;;;2.15;;
22415;SDS011;12204;50.600;4.608;2023-05-10T09:05:19;6.33;;;2.20;;
22415;SDS011;12204;50.600;4.608;2023-05-10T09:10:22;6.68;;;1.95;;
22415;SDS011;12204;50.600;4.608;2023-05-10T09:15:30;8.40;;;2.10;;
22415;SDS011;12204;50.600;4.608;2023-05-10T09:20:33;11.90;;;2.13;;
22415;SDS011;12204;50.600;4.608;2023-05-10T09:25:37;8.00;;;1.70;;
22415;SDS011;12204;50.600;4.608;2023-05-10T09:30:42;11.38;;;1.90;;
22415;SDS011;12204;50.600;4.608;2023-05-10T09:35:46;8.40;;;2.15;;
22415;SDS011;12204;50.600;4.608;2023-05-10T09:40:54;5.18;;;2.10;;
22415;SDS011;12204;50.600;4.608;2023-05-10T09:46:00;10.23;;;2.20;;
22415;SDS011;12204;50.600;4.608;2023-05-10T09:51:18;11.32;;;1.95;;
22415;SDS011;12204;50.600;4.608;2023-05-10T09:56:35;7.35;;;1.92;;
22415;SDS011;12204;50.600;4.608;2023-05-10T10:01:42;9.95;;;1.92;;
22415;SDS011;12204;50.600;4.608;2023-05-10T10:07:00;16.50;;;1.90;;
22415;SDS011;12204;50.600;4.608;2023-05-10T10:12:05;10.90;;;1.65;;
22415;SDS011;12204;50.600;4.608;2023-05-10T10:17:11;8.43;;;1.80;;
22415;SDS011;12204;50.600;4.608;2023-05-10T10:22:15;5.97;;;1.73;;
22415;SDS011;12204;50.600;4.608;2023-05-10T10:27:21;11.05;;;2.00;;
22415;SDS011;12204;50.600;4.608;2023-05-10T10:32:35;6.28;;;1.77;;
22415;SDS011;12204;50.600;4.608;2023-05-10T10:38:35;4.82;;;1.80;;
22415;SDS011;12204;50.600;4.608;2023-05-10T10:49:49;3.90;;;1.50;;
22415;SDS011;12204;50.600;4.608;2023-05-10T10:54:58;5.93;;;1.50;;
22415;SDS011;12204;50.600;4.608;2023-05-10T11:00:21;4.80;;;1.33;;
22415;SDS011;12204;50.600;4.608;2023-05-10T11:05:35;5.28;;;1.58;;
22415;SDS011;12204;50.600;4.608;2023-05-10T11:10:50;3.30;;;1.17;;
22415;SDS011;12204;50.600;4.608;2023-05-10T11:16:10;3.90;;;1.20;;
22415;SDS011;12204;50.600;4.608;2023-05-10T11:21:20;4.45;;;1.30;;
22415;SDS011;12204;50.600;4.608;2023-05-10T11:26:25;5.93;;;1.37;;
22415;SDS011;12204;50.600;4.608;2023-05-10T11:31:35;6.93;;;1.33;;
22415;SDS011;12204;50.600;4.608;2023-05-10T11:36:50;7.80;;;1.42;;
22415;SDS011;12204;50.600;4.608;2023-05-10T11:41:56;6.57;;;1.45;;
22415;SDS011;12204;50.600;4.608;2023-05-10T11:47:02;7.95;;;1.65;;
22415;SDS011;12204;50.600;4.608;2023-05-10T11:52:08;11.00;;;1.73;;
22415;SDS011;12204;50.600;4.608;2023-05-10T11:57:14;8.80;;;1.60;;
22415;SDS011;12204;50.600;4.608;2023-05-10T12:02:19;9.68;;;1.70;;
22415;SDS011;12204;50.600;4.608;2023-05-10T12:07:26;10.10;;;1.77;;
22415;SDS011;12204;50.600;4.608;2023-05-10T12:12:35;10.35;;;1.70;;
22415;SDS011;12204;50.600;4.608;2023-05-10T12:17:47;10.23;;;1.67;;
22415;SDS011;12204;50.600;4.608;2023-05-10T12:22:55;8.48;;;1.60;;
22415;SDS011;12204;50.600;4.608;2023-05-10T12:28:04;6.45;;;1.40;;
22415;SDS011;12204;50.600;4.608;2023-05-10T12:38:26;8.07;;;1.40;;
22415;SDS011;12204;50.600;4.608;2023-05-10T12:43:35;13.45;;;1.67;;
22415;SDS011;12204;50.600;4.608;2023-05-10T12:48:41;9.07;;;1.70;;
22415;SDS011;12204;50.600;4.608;2023-05-10T12:53:50;10.02;;;1.73;;
22415;SDS011;12204;50.600;4.608;2023-05-10T12:58:59;12.50;;;1.85;;
22415;SDS011;12204;50.600;4.608;2023-05-10T13:04:07;11.18;;;1.60;;
22415;SDS011;12204;50.600;4.608;2023-05-10T13:09:13;13.00;;;1.30;;
22415;SDS011;12204;50.600;4.608;2023-05-10T13:14:18;9.50;;;1.23;;
22415;SDS011;12204;50.600;4.608;2023-05-10T13:19:23;2.38;;;0.95;;
22415;SDS011;12204;50.600;4.608;2023-05-10T13:24:30;2.90;;;0.80;;
22415;SDS011;12204;50.600;4.608;2023-05-10T13:29:35;3.78;;;0.80;;
22415;SDS011;12204;50.600;4.608;2023-05-10T13:34:40;6.65;;;0.82;;
22415;SDS011;12204;50.600;4.608;2023-05-10T13:40:58;30.20;;;1.63;;
22415;SDS011;12204;50.600;4.608;2023-05-10T13:46:01;17.80;;;1.13;;
22415;SDS011;12204;50.600;4.608;2023-05-10T13:51:05;15.15;;;1.10;;
22415;SDS011;12204;50.600;4.608;2023-05-10T13:56:10;10.60;;;1.40;;
22415;SDS011;12204;50.600;4.608;2023-05-10T14:01:14;10.95;;;1.30;;
22415;SDS011;12204;50.600;4.608;2023-05-10T14:06:17;9.00;;;1.42;;
22415;SDS011;12204;50.600;4.608;2023-05-10T14:11:22;7.38;;;1.40;;
22415;SDS011;12204;50.600;4.608;2023-05-10T14:16:26;7.35;;;1.10;;
22415;SDS011;12204;50.600;4.608;2023-05-10T14:21:29;12.07;;;1.30;;
22415;SDS011;12204;50.600;4.608;2023-05-10T14:26:34;6.50;;;1.20;;
22415;SDS011;12204;50.600;4.608;2023-05-10T14:31:38;5.78;;;1.20;;
22415;SDS011;12204;50.600;4.608;2023-05-10T14:36:45;5.80;;;0.90;;
22415;SDS011;12204;50.600;4.608;2023-05-10T14:41:52;5.47;;;1.00;;
22415;SDS011;12204;50.600;4.608;2023-05-10T14:46:56;4.85;;;0.90;;
22415;SDS011;12204;50.600;4.608;2023-05-10T14:52:01;2.50;;;0.90;;
22415;SDS011;12204;50.600;4.608;2023-05-10T14:57:07;2.28;;;0.80;;
22415;SDS011;12204;50.600;4.608;2023-05-10T15:02:12;3.83;;;0.90;;
22415;SDS011;12204;50.600;4.608;2023-05-10T15:07:17;3.28;;;0.98;;
22415;SDS011;12204;50.600;4.608;2023-05-10T15:12:23;3.33;;;0.95;;
22415;SDS011;12204;50.600;4.608;2023-05-10T15:17:28;5.95;;;1.08;;
22415;SDS011;12204;50.600;4.608;2023-05-10T15:22:33;3.60;;;0.85;;
22415;SDS011;12204;50.600;4.608;2023-05-10T15:27:39;3.08;;;1.00;;
22415;SDS011;12204;50.600;4.608;2023-05-10T15:32:45;3.78;;;1.40;;
22415;SDS011;12204;50.600;4.608;2023-05-10T15:37:48;5.70;;;1.50;;
22415;SDS011;12204;50.600;4.608;2023-05-10T15:42:53;4.30;;;1.50;;
22415;SDS011;12204;50.600;4.608;2023-05-10T15:47:58;5.20;;;2.00;;
22415;SDS011;12204;50.600;4.608;2023-05-10T15:53:02;8.25;;;2.83;;
22415;SDS011;12204;50.600;4.608;2023-05-10T15:58:09;9.23;;;2.88;;
22415;SDS011;12204;50.600;4.608;2023-05-10T16:03:13;10.48;;;3.40;;
22415;SDS011;12204;50.600;4.608;2023-05-10T16:08:17;14.27;;;3.25;;
22415;SDS011;12204;50.600;4.608;2023-05-10T16:13:22;7.63;;;3.70;;
22415;SDS011;12204;50.600;4.608;2023-05-10T16:18:26;10.63;;;3.58;;
22415;SDS011;12204;50.600;4.608;2023-05-10T16:23:31;8.15;;;3.60;;
22415;SDS011;12204;50.600;4.608;2023-05-10T16:28:37;9.57;;;3.80;;
22415;SDS011;12204;50.600;4.608;2023-05-10T16:33:41;8.60;;;3.80;;
22415;SDS011;12204;50.600;4.608;2023-05-10T16:38:46;10.18;;;3.60;;
22415;SDS011;12204;50.600;4.608;2023-05-10T16:43:51;15.57;;;3.92;;
22415;SDS011;12204;50.600;4.608;2023-05-10T16:48:58;9.48;;;3.50;;
22415;SDS011;12204;50.600;4.608;2023-05-10T16:54:02;15.30;;;3.88;;
22415;SDS011;12204;50.600;4.608;2023-05-10T16:59:08;9.07;;;3.85;;
22415;SDS011;12204;50.600;4.608;2023-05-10T17:04:12;11.57;;;4.47;;
22415;SDS011;12204;50.600;4.608;2023-05-10T17:09:17;9.48;;;3.72;;
22415;SDS011;12204;50.600;4.608;2023-05-10T17:14:23;10.88;;;4.00;;
22415;SDS011;12204;50.600;4.608;2023-05-10T17:19:27;6.57;;;2.90;;
22415;SDS011;12204;50.600;4.608;2023-05-10T17:24:32;7.70;;;2.60;;
22415;SDS011;12204;50.600;4.608;2023-05-10T17:29:37;7.50;;;2.30;;
22415;SDS011;12204;50.600;4.608;2023-05-10T17:34:40;7.13;;;2.30;;
22415;SDS011;12204;50.600;4.608;2023-05-10T17:39:44;7.28;;;2.15;;
22415;SDS011;12204;50.600;4.608;2023-05-10T17:44:49;5.18;;;2.10;;
22415;SDS011;12204;50.600;4.608;2023-05-10T17:49:53;6.25;;;2.20;;
22415;SDS011;12204;50.600;4.608;2023-05-10T17:54:56;5.13;;;2.20;;
22415;SDS011;12204;50.600;4.608;2023-05-10T18:00:01;6.57;;;2.33;;
22415;SDS011;12204;50.600;4.608;2023-05-10T18:05:06;7.67;;;2.20;;
22415;SDS011;12204;50.600;4.608;2023-05-10T18:10:11;5.22;;;2.30;;
22415;SDS011;12204;50.600;4.608;2023-05-10T18:15:16;7.57;;;2.45;;
22415;SDS011;12204;50.600;4.608;2023-05-10T18:20:20;5.93;;;2.50;;
22415;SDS011;12204;50.600;4.608;2023-05-10T18:25:24;4.38;;;2.00;;
22415;SDS011;12204;50.600;4.608;2023-05-10T18:30:29;7.93;;;2.33;;
22415;SDS011;12204;50.600;4.608;2023-05-10T18:35:32;6.25;;;2.00;;
22415;SDS011;12204;50.600;4.608;2023-05-10T18:40:36;7.28;;;2.33;;
22415;SDS011;12204;50.600;4.608;2023-05-10T18:45:41;6.10;;;2.10;;
22415;SDS011;12204;50.600;4.608;2023-05-10T18:50:45;5.75;;;2.00;;
22415;SDS011;12204;50.600;4.608;2023-05-10T18:55:53;5.40;;;2.13;;
22415;SDS011;12204;50.600;4.608;2023-05-10T19:01:00;5.22;;;2.03;;
22415;SDS011;12204;50.600;4.608;2023-05-10T19:06:03;5.13;;;2.00;;
22415;SDS011;12204;50.600;4.608;2023-05-10T19:11:06;5.45;;;1.98;;
22415;SDS011;12204;50.600;4.608;2023-05-10T19:16:12;4.47;;;2.10;;
22415;SDS011;12204;50.600;4.608;2023-05-10T19:21:23;6.35;;;2.00;;
22415;SDS011;12204;50.600;4.608;2023-05-10T19:26:27;4.38;;;1.83;;
22415;SDS011;12204;50.600;4.608;2023-05-10T19:31:31;4.75;;;2.00;;
22415;SDS011;12204;50.600;4.608;2023-05-10T19:36:36;5.10;;;1.83;;
22415;SDS011;12204;50.600;4.608;2023-05-10T19:41:39;6.18;;;1.85;;
22415;SDS011;12204;50.600;4.608;2023-05-10T19:46:44;4.50;;;1.70;;
22415;SDS011;12204;50.600;4.608;2023-05-10T19:51:47;6.30;;;2.10;;
22415;SDS011;12204;50.600;4.608;2023-05-10T19:56:51;4.80;;;1.80;;
22415;SDS011;12204;50.600;4.608;2023-05-10T20:01:56;7.30;;;1.90;;
22415;SDS011;12204;50.600;4.608;2023-05-10T20:06:59;4.40;;;1.90;;
22415;SDS011;12204;50.600;4.608;2023-05-10T20:12:03;4.60;;;1.80;;
22415;SDS011;12204;50.600;4.608;2023-05-10T20:17:07;4.00;;;1.83;;
22415;SDS011;12204;50.600;4.608;2023-05-10T20:22:11;4.20;;;1.80;;
22415;SDS011;12204;50.600;4.608;2023-05-10T20:27:14;3.42;;;1.70;;
22415;SDS011;12204;50.600;4.608;2023-05-10T20:32:19;3.58;;;1.70;;
22415;SDS011;12204;50.600;4.608;2023-05-10T20:37:23;4.00;;;1.70;;
22415;SDS011;12204;50.600;4.608;2023-05-10T20:42:27;4.43;;;1.80;;
22415;SDS011;12204;50.600;4.608;2023-05-10T20:47:33;4.18;;;1.75;;
22415;SDS011;12204;50.600;4.608;2023-05-10T20:52:37;4.03;;;1.73;;
22415;SDS011;12204;50.600;4.608;2023-05-10T20:57:41;3.80;;;1.60;;
22415;SDS011;12204;50.600;4.608;2023-05-10T21:02:46;4.13;;;1.70;;
22415;SDS011;12204;50.600;4.608;2023-05-10T21:07:50;3.80;;;1.70;;
22415;SDS011;12204;50.600;4.608;2023-05-10T21:12:54;4.05;;;1.70;;
22415;SDS011;12204;50.600;4.608;2023-05-10T21:17:59;4.40;;;1.90;;
22415;SDS011;12204;50.600;4.608;2023-05-10T21:23:03;4.53;;;1.80;;
22415;SDS011;12204;50.600;4.608;2023-05-10T21:28:07;4.10;;;1.77;;
22415;SDS011;12204;50.600;4.608;2023-05-10T21:33:12;3.95;;;1.75;;
22415;SDS011;12204;50.600;4.608;2023-05-10T21:38:15;5.18;;;1.75;;
22415;SDS011;12204;50.600;4.608;2023-05-10T21:43:18;4.18;;;1.70;;
22415;SDS011;12204;50.600;4.608;2023-05-10T21:48:23;4.40;;;1.48;;
22415;SDS011;12204;50.600;4.608;2023-05-10T21:53:27;4.90;;;1.60;;
22415;SDS011;12204;50.600;4.608;2023-05-10T21:58:30;3.65;;;1.65;;
22415;SDS011;12204;50.600;4.608;2023-05-10T22:03:35;7.30;;;2.17;;
22415;SDS011;12204;50.600;4.608;2023-05-10T22:08:39;7.72;;;3.00;;
22415;SDS011;12204;50.600;4.608;2023-05-10T22:13:42;10.43;;;3.30;;
22415;SDS011;12204;50.600;4.608;2023-05-10T22:18:47;10.35;;;3.90;;
22415;SDS011;12204;50.600;4.608;2023-05-10T22:23:51;9.55;;;3.38;;
22415;SDS011;12204;50.600;4.608;2023-05-10T22:28:54;10.52;;;3.63;;
22415;SDS011;12204;50.600;4.608;2023-05-10T22:34:00;13.35;;;4.00;;
22415;SDS011;12204;50.600;4.608;2023-05-10T22:39:03;13.98;;;4.00;;
22415;SDS011;12204;50.600;4.608;2023-05-10T22:44:07;11.43;;;3.80;;
22415;SDS011;12204;50.600;4.608;2023-05-10T22:49:13;12.68;;;3.63;;
22415;SDS011;12204;50.600;4.608;2023-05-10T22:54:17;10.77;;;3.70;;
22415;SDS011;12204;50.600;4.608;2023-05-10T22:59:20;10.20;;;3.92;;
22415;SDS011;12204;50.600;4.608;2023-05-10T23:04:27;13.52;;;4.03;;
22415;SDS011;12204;50.600;4.608;2023-05-10T23:09:31;10.15;;;3.75;;
22415;SDS011;12204;50.600;4.608;2023-05-10T23:14:35;10.15;;;3.70;;
22415;SDS011;12204;50.600;4.608;2023-05-10T23:19:40;9.40;;;3.60;;
22415;SDS011;12204;50.600;4.608;2023-05-10T23:24:44;8.38;;;3.40;;
22415;SDS011;12204;50.600;4.608;2023-05-10T23:29:47;9.43;;;3.75;;
22415;SDS011;12204;50.600;4.608;2023-05-10T23:34:57;12.00;;;3.75;;
22415;SDS011;12204;50.600;4.608;2023-05-10T23:40:01;8.70;;;3.60;;
22415;SDS011;12204;50.600;4.608;2023-05-10T23:45:05;9.30;;;3.67;;
22415;SDS011;12204;50.600;4.608;2023-05-10T23:50:12;9.38;;;3.55;;
22415;SDS011;12204;50.600;4.608;2023-05-10T23:55:16;8.05;;;3.35;;
